sensor_id;sensor_type;location;lat;lon;timestamp;P1;durP1;ratioP1;P2;durP2;ratioP2
417;SDS011;49;48.530;9.200;2023-01-25T00:01:57;72.40;;;37.50;;
417;SDS011;49;48.530;9.200;2023-01-25T00:04:24;72.37;;;35.90;;
417;SDS011;49;48.530;9.200;2023-01-25T00:06:51;77.80;;;37.30;;
417;SDS011;49;48.530;9.200;2023-01-25T00:09:19;68.67;;;35.20;;
417;SDS011;49;48.530;9.200;2023-01-25T00:11:47;72.63;;;35.80;;
417;SDS011;49;48.530;9.200;2023-01-25T00:14:15;67.70;;;36.10;;
417;SDS011;49;48.530;9.200;2023-01-25T00:16:42;71.40;;;37.00;;
417;SDS011;49;48.530;9.200;2023-01-25T00:19:10;80.00;;;38.80;;
417;SDS011;49;48.530;9.200;2023-01-25T00:21:37;84.13;;;40.73;;
417;SDS011;49;48.530;9.200;2023-01-25T00:24:05;76.30;;;37.37;;
417;SDS011;49;48.530;9.200;2023-01-25T00:26:35;66.80;;;36.00;;
417;SDS011;49;48.530;9.200;2023-01-25T00:29:03;82.83;;;35.10;;
417;SDS011;49;48.530;9.200;2023-01-25T00:34:54;74.23;;;34.43;;
417;SDS011;49;48.530;9.200;2023-01-25T00:37:27;75.10;;;36.27;;
417;SDS011;49;48.530;9.200;2023-01-25T00:40:00;67.73;;;34.47;;
417;SDS011;49;48.530;9.200;2023-01-25T00:42:27;62.83;;;34.43;;
417;SDS011;49;48.530;9.200;2023-01-25T00:44:54;67.63;;;35.07;;
417;SDS011;49;48.530;9.200;2023-01-25T00:47:21;79.27;;;37.70;;
417;SDS011;49;48.530;9.200;2023-01-25T00:49:48;64.37;;;32.90;;
417;SDS011;49;48.530;9.200;2023-01-25T00:52:17;75.17;;;34.73;;
417;SDS011;49;48.530;9.200;2023-01-25T00:54:44;66.80;;;34.00;;
417;SDS011;49;48.530;9.200;2023-01-25T00:57:11;71.23;;;35.03;;
417;SDS011;49;48.530;9.200;2023-01-25T00:59:38;71.33;;;36.43;;
417;SDS011;49;48.530;9.200;2023-01-25T01:02:08;68.10;;;33.80;;
417;SDS011;49;48.530;9.200;2023-01-25T01:04:36;67.27;;;34.70;;
417;SDS011;49;48.530;9.200;2023-01-25T01:07:03;69.97;;;35.13;;
417;SDS011;49;48.530;9.200;2023-01-25T01:09:48;64.73;;;33.57;;
417;SDS011;49;48.530;9.200;2023-01-25T01:15:37;70.27;;;33.00;;
417;SDS011;49;48.530;9.200;2023-01-25T01:18:04;61.07;;;30.50;;
417;SDS011;49;48.530;9.200;2023-01-25T01:20:31;57.47;;;31.20;;
417;SDS011;49;48.530;9.200;2023-01-25T01:22:58;65.67;;;33.63;;
417;SDS011;49;48.530;9.200;2023-01-25T01:25:27;54.57;;;29.13;;
417;SDS011;49;48.530;9.200;2023-01-25T01:27:54;57.90;;;30.27;;
417;SDS011;49;48.530;9.200;2023-01-25T01:30:21;65.83;;;31.67;;
417;SDS011;49;48.530;9.200;2023-01-25T01:32:49;60.07;;;31.87;;
417;SDS011;49;48.530;9.200;2023-01-25T01:35:16;65.10;;;31.30;;
417;SDS011;49;48.530;9.200;2023-01-25T01:37:43;52.43;;;31.13;;
417;SDS011;49;48.530;9.200;2023-01-25T01:40:13;61.07;;;29.00;;
417;SDS011;49;48.530;9.200;2023-01-25T01:42:58;60.07;;;32.20;;
417;SDS011;49;48.530;9.200;2023-01-25T01:45:41;57.40;;;29.47;;
417;SDS011;49;48.530;9.200;2023-01-25T01:48:15;59.93;;;33.03;;
417;SDS011;49;48.530;9.200;2023-01-25T01:50:46;55.87;;;28.50;;
417;SDS011;49;48.530;9.200;2023-01-25T01:53:18;61.73;;;32.60;;
417;SDS011;49;48.530;9.200;2023-01-25T01:55:46;59.50;;;32.40;;
417;SDS011;49;48.530;9.200;2023-01-25T01:58:14;58.13;;;30.17;;
417;SDS011;49;48.530;9.200;2023-01-25T02:00:41;54.47;;;30.00;;
417;SDS011;49;48.530;9.200;2023-01-25T02:03:15;59.73;;;32.23;;
417;SDS011;49;48.530;9.200;2023-01-25T02:05:49;71.17;;;33.20;;
417;SDS011;49;48.530;9.200;2023-01-25T02:08:20;54.07;;;28.97;;
417;SDS011;49;48.530;9.200;2023-01-25T02:11:01;59.03;;;30.67;;
417;SDS011;49;48.530;9.200;2023-01-25T02:13:30;58.30;;;29.10;;
417;SDS011;49;48.530;9.200;2023-01-25T02:15:57;57.47;;;31.10;;
417;SDS011;49;48.530;9.200;2023-01-25T02:18:24;59.80;;;27.60;;
417;SDS011;49;48.530;9.200;2023-01-25T02:20:52;54.50;;;29.30;;
417;SDS011;49;48.530;9.200;2023-01-25T02:23:22;60.03;;;32.20;;
417;SDS011;49;48.530;9.200;2023-01-25T02:25:56;52.20;;;27.70;;
417;SDS011;49;48.530;9.200;2023-01-25T02:28:26;59.70;;;30.37;;
417;SDS011;49;48.530;9.200;2023-01-25T02:30:58;56.77;;;28.87;;
417;SDS011;49;48.530;9.200;2023-01-25T02:33:25;48.53;;;27.70;;
417;SDS011;49;48.530;9.200;2023-01-25T02:35:55;52.80;;;28.47;;
417;SDS011;49;48.530;9.200;2023-01-25T02:38:25;54.60;;;27.80;;
417;SDS011;49;48.530;9.200;2023-01-25T02:40:58;59.33;;;28.47;;
417;SDS011;49;48.530;9.200;2023-01-25T02:43:30;55.67;;;29.10;;
417;SDS011;49;48.530;9.200;2023-01-25T02:46:02;48.57;;;27.50;;
417;SDS011;49;48.530;9.200;2023-01-25T02:48:34;56.63;;;29.40;;
417;SDS011;49;48.530;9.200;2023-01-25T02:51:01;50.50;;;26.93;;
417;SDS011;49;48.530;9.200;2023-01-25T02:53:31;52.27;;;28.73;;
417;SDS011;49;48.530;9.200;2023-01-25T02:56:00;53.30;;;26.90;;
417;SDS011;49;48.530;9.200;2023-01-25T02:58:27;51.87;;;26.87;;
417;SDS011;49;48.530;9.200;2023-01-25T03:00:56;51.70;;;26.87;;
417;SDS011;49;48.530;9.200;2023-01-25T03:03:24;48.47;;;27.03;;
417;SDS011;49;48.530;9.200;2023-01-25T03:05:51;51.77;;;27.70;;
417;SDS011;49;48.530;9.200;2023-01-25T03:08:18;53.47;;;27.83;;
417;SDS011;49;48.530;9.200;2023-01-25T03:10:44;50.77;;;27.70;;
417;SDS011;49;48.530;9.200;2023-01-25T03:13:13;50.83;;;29.47;;
417;SDS011;49;48.530;9.200;2023-01-25T03:15:40;51.70;;;27.40;;
417;SDS011;49;48.530;9.200;2023-01-25T03:18:06;52.63;;;27.17;;
417;SDS011;49;48.530;9.200;2023-01-25T03:20:33;62.27;;;27.67;;
417;SDS011;49;48.530;9.200;2023-01-25T03:23:00;52.43;;;28.17;;
417;SDS011;49;48.530;9.200;2023-01-25T03:25:27;50.53;;;27.57;;
417;SDS011;49;48.530;9.200;2023-01-25T03:27:54;50.23;;;26.10;;
417;SDS011;49;48.530;9.200;2023-01-25T03:30:22;51.30;;;27.73;;
417;SDS011;49;48.530;9.200;2023-01-25T03:32:49;50.57;;;27.93;;
417;SDS011;49;48.530;9.200;2023-01-25T03:35:17;47.57;;;26.90;;
417;SDS011;49;48.530;9.200;2023-01-25T03:37:44;47.00;;;27.00;;
417;SDS011;49;48.530;9.200;2023-01-25T03:40:11;50.73;;;27.17;;
417;SDS011;49;48.530;9.200;2023-01-25T03:42:38;54.50;;;28.50;;
417;SDS011;49;48.530;9.200;2023-01-25T03:45:05;51.23;;;28.30;;
417;SDS011;49;48.530;9.200;2023-01-25T03:47:34;51.57;;;28.03;;
417;SDS011;49;48.530;9.200;2023-01-25T03:50:01;52.90;;;28.37;;
417;SDS011;49;48.530;9.200;2023-01-25T03:52:28;54.13;;;27.20;;
417;SDS011;49;48.530;9.200;2023-01-25T03:55:02;52.53;;;27.33;;
417;SDS011;49;48.530;9.200;2023-01-25T03:57:29;47.23;;;25.23;;
417;SDS011;49;48.530;9.200;2023-01-25T03:59:56;57.97;;;29.30;;
417;SDS011;49;48.530;9.200;2023-01-25T04:02:23;50.50;;;28.40;;
417;SDS011;49;48.530;9.200;2023-01-25T04:04:52;52.87;;;27.50;;
417;SDS011;49;48.530;9.200;2023-01-25T04:07:19;55.80;;;27.83;;
417;SDS011;49;48.530;9.200;2023-01-25T04:09:45;53.53;;;27.27;;
417;SDS011;49;48.530;9.200;2023-01-25T04:12:14;51.80;;;26.23;;
417;SDS011;49;48.530;9.200;2023-01-25T04:14:41;50.70;;;28.10;;
417;SDS011;49;48.530;9.200;2023-01-25T04:17:08;59.83;;;29.97;;
417;SDS011;49;48.530;9.200;2023-01-25T04:19:35;47.83;;;27.10;;
417;SDS011;49;48.530;9.200;2023-01-25T04:22:03;56.50;;;28.60;;
417;SDS011;49;48.530;9.200;2023-01-25T04:24:30;57.10;;;30.17;;
417;SDS011;49;48.530;9.200;2023-01-25T04:26:57;61.03;;;32.97;;
417;SDS011;49;48.530;9.200;2023-01-25T04:29:26;57.00;;;30.10;;
417;SDS011;49;48.530;9.200;2023-01-25T04:31:53;50.70;;;27.70;;
417;SDS011;49;48.530;9.200;2023-01-25T04:34:20;57.73;;;31.90;;
417;SDS011;49;48.530;9.200;2023-01-25T04:36:48;49.67;;;27.70;;
417;SDS011;49;48.530;9.200;2023-01-25T04:39:16;51.90;;;26.00;;
417;SDS011;49;48.530;9.200;2023-01-25T04:41:43;52.17;;;26.97;;
417;SDS011;49;48.530;9.200;2023-01-25T04:44:10;52.13;;;27.77;;
417;SDS011;49;48.530;9.200;2023-01-25T04:46:37;58.27;;;26.90;;
417;SDS011;49;48.530;9.200;2023-01-25T04:49:04;54.40;;;26.07;;
417;SDS011;49;48.530;9.200;2023-01-25T04:51:31;51.80;;;26.53;;
417;SDS011;49;48.530;9.200;2023-01-25T04:53:58;51.43;;;27.90;;
417;SDS011;49;48.530;9.200;2023-01-25T04:56:26;45.80;;;25.90;;
417;SDS011;49;48.530;9.200;2023-01-25T04:58:53;54.40;;;27.20;;
417;SDS011;49;48.530;9.200;2023-01-25T05:01:20;52.93;;;27.60;;
417;SDS011;49;48.530;9.200;2023-01-25T05:03:47;51.37;;;27.97;;
417;SDS011;49;48.530;9.200;2023-01-25T05:06:13;53.60;;;27.00;;
417;SDS011;49;48.530;9.200;2023-01-25T05:08:40;55.17;;;28.43;;
417;SDS011;49;48.530;9.200;2023-01-25T05:11:07;55.13;;;26.30;;
417;SDS011;49;48.530;9.200;2023-01-25T05:13:36;60.23;;;26.43;;
417;SDS011;49;48.530;9.200;2023-01-25T05:16:04;46.80;;;26.73;;
417;SDS011;49;48.530;9.200;2023-01-25T05:18:31;51.13;;;25.90;;
417;SDS011;49;48.530;9.200;2023-01-25T05:20:58;48.10;;;28.37;;
417;SDS011;49;48.530;9.200;2023-01-25T05:23:25;61.03;;;30.60;;
417;SDS011;49;48.530;9.200;2023-01-25T05:25:52;52.53;;;29.30;;
417;SDS011;49;48.530;9.200;2023-01-25T05:28:37;54.33;;;27.10;;
417;SDS011;49;48.530;9.200;2023-01-25T05:31:04;51.93;;;26.43;;
417;SDS011;49;48.530;9.200;2023-01-25T05:33:31;43.63;;;25.63;;
417;SDS011;49;48.530;9.200;2023-01-25T05:35:58;56.27;;;28.23;;
417;SDS011;49;48.530;9.200;2023-01-25T05:38:26;45.00;;;27.03;;
417;SDS011;49;48.530;9.200;2023-01-25T05:40:56;46.87;;;25.90;;
417;SDS011;49;48.530;9.200;2023-01-25T05:43:23;48.80;;;27.03;;
417;SDS011;49;48.530;9.200;2023-01-25T05:45:52;45.93;;;26.37;;
417;SDS011;49;48.530;9.200;2023-01-25T05:48:19;55.67;;;27.53;;
417;SDS011;49;48.530;9.200;2023-01-25T05:50:46;49.90;;;27.63;;
417;SDS011;49;48.530;9.200;2023-01-25T05:53:12;51.67;;;27.50;;
417;SDS011;49;48.530;9.200;2023-01-25T05:55:39;60.60;;;30.50;;
417;SDS011;49;48.530;9.200;2023-01-25T05:58:06;42.37;;;25.37;;
417;SDS011;49;48.530;9.200;2023-01-25T06:00:33;60.87;;;32.53;;
417;SDS011;49;48.530;9.200;2023-01-25T06:03:01;62.43;;;33.67;;
417;SDS011;49;48.530;9.200;2023-01-25T06:05:28;52.60;;;29.77;;
417;SDS011;49;48.530;9.200;2023-01-25T06:07:56;48.13;;;26.17;;
417;SDS011;49;48.530;9.200;2023-01-25T06:10:23;69.90;;;31.90;;
417;SDS011;49;48.530;9.200;2023-01-25T06:12:55;60.83;;;31.63;;
417;SDS011;49;48.530;9.200;2023-01-25T06:15:23;44.20;;;24.73;;
417;SDS011;49;48.530;9.200;2023-01-25T06:17:53;50.70;;;26.77;;
417;SDS011;49;48.530;9.200;2023-01-25T06:20:22;55.73;;;27.30;;
417;SDS011;49;48.530;9.200;2023-01-25T06:22:49;54.23;;;27.67;;
417;SDS011;49;48.530;9.200;2023-01-25T06:25:16;51.63;;;28.03;;
417;SDS011;49;48.530;9.200;2023-01-25T06:27:43;54.40;;;28.53;;
417;SDS011;49;48.530;9.200;2023-01-25T06:30:10;46.77;;;27.83;;
417;SDS011;49;48.530;9.200;2023-01-25T06:32:37;50.67;;;27.17;;
417;SDS011;49;48.530;9.200;2023-01-25T06:35:05;46.60;;;26.60;;
417;SDS011;49;48.530;9.200;2023-01-25T06:37:33;49.13;;;27.13;;
417;SDS011;49;48.530;9.200;2023-01-25T06:40:00;42.70;;;24.60;;
417;SDS011;49;48.530;9.200;2023-01-25T06:42:27;44.63;;;23.90;;
417;SDS011;49;48.530;9.200;2023-01-25T06:44:54;39.87;;;23.30;;
417;SDS011;49;48.530;9.200;2023-01-25T06:47:21;40.33;;;22.10;;
417;SDS011;49;48.530;9.200;2023-01-25T06:49:48;38.77;;;22.00;;
417;SDS011;49;48.530;9.200;2023-01-25T06:52:15;39.80;;;22.70;;
417;SDS011;49;48.530;9.200;2023-01-25T06:54:43;37.90;;;23.10;;
417;SDS011;49;48.530;9.200;2023-01-25T06:57:10;38.57;;;22.27;;
417;SDS011;49;48.530;9.200;2023-01-25T06:59:37;40.50;;;23.47;;
417;SDS011;49;48.530;9.200;2023-01-25T07:02:04;39.40;;;22.57;;
417;SDS011;49;48.530;9.200;2023-01-25T07:04:31;41.97;;;22.93;;
417;SDS011;49;48.530;9.200;2023-01-25T07:06:58;40.13;;;23.90;;
417;SDS011;49;48.530;9.200;2023-01-25T07:09:25;38.30;;;21.03;;
417;SDS011;49;48.530;9.200;2023-01-25T07:11:53;45.63;;;24.63;;
417;SDS011;49;48.530;9.200;2023-01-25T07:14:20;37.80;;;22.30;;
417;SDS011;49;48.530;9.200;2023-01-25T07:16:47;44.20;;;22.13;;
417;SDS011;49;48.530;9.200;2023-01-25T07:19:14;43.47;;;21.80;;
417;SDS011;49;48.530;9.200;2023-01-25T07:21:42;41.30;;;21.47;;
417;SDS011;49;48.530;9.200;2023-01-25T07:24:09;37.80;;;21.77;;
417;SDS011;49;48.530;9.200;2023-01-25T07:26:39;39.63;;;22.87;;
417;SDS011;49;48.530;9.200;2023-01-25T07:29:08;40.87;;;24.83;;
417;SDS011;49;48.530;9.200;2023-01-25T07:31:38;36.27;;;21.93;;
417;SDS011;49;48.530;9.200;2023-01-25T07:34:05;30.87;;;19.20;;
417;SDS011;49;48.530;9.200;2023-01-25T07:36:35;31.77;;;19.27;;
417;SDS011;49;48.530;9.200;2023-01-25T07:39:02;34.87;;;19.43;;
417;SDS011;49;48.530;9.200;2023-01-25T07:41:29;31.90;;;17.70;;
417;SDS011;49;48.530;9.200;2023-01-25T07:43:56;29.23;;;17.30;;
417;SDS011;49;48.530;9.200;2023-01-25T07:46:24;27.83;;;16.00;;
417;SDS011;49;48.530;9.200;2023-01-25T07:48:52;31.17;;;16.60;;
417;SDS011;49;48.530;9.200;2023-01-25T07:51:20;23.10;;;14.33;;
417;SDS011;49;48.530;9.200;2023-01-25T07:53:49;30.80;;;17.17;;
417;SDS011;49;48.530;9.200;2023-01-25T07:56:18;28.50;;;16.23;;
417;SDS011;49;48.530;9.200;2023-01-25T07:58:46;27.93;;;15.60;;
417;SDS011;49;48.530;9.200;2023-01-25T08:01:17;27.50;;;16.43;;
417;SDS011;49;48.530;9.200;2023-01-25T08:03:47;26.73;;;15.67;;
417;SDS011;49;48.530;9.200;2023-01-25T08:06:15;26.70;;;16.10;;
417;SDS011;49;48.530;9.200;2023-01-25T08:08:43;26.77;;;16.00;;
417;SDS011;49;48.530;9.200;2023-01-25T08:11:13;23.80;;;15.07;;
417;SDS011;49;48.530;9.200;2023-01-25T08:13:41;26.83;;;15.03;;
417;SDS011;49;48.530;9.200;2023-01-25T08:16:10;28.63;;;14.13;;
417;SDS011;49;48.530;9.200;2023-01-25T08:18:39;23.23;;;13.90;;
417;SDS011;49;48.530;9.200;2023-01-25T08:21:08;24.90;;;14.93;;
417;SDS011;49;48.530;9.200;2023-01-25T08:23:35;22.67;;;14.07;;
417;SDS011;49;48.530;9.200;2023-01-25T08:26:03;22.50;;;15.00;;
417;SDS011;49;48.530;9.200;2023-01-25T08:28:33;23.40;;;14.40;;
417;SDS011;49;48.530;9.200;2023-01-25T08:31:04;23.83;;;14.77;;
417;SDS011;49;48.530;9.200;2023-01-25T08:33:33;25.97;;;15.23;;
417;SDS011;49;48.530;9.200;2023-01-25T08:36:01;27.60;;;14.00;;
417;SDS011;49;48.530;9.200;2023-01-25T08:38:30;26.73;;;16.60;;
417;SDS011;49;48.530;9.200;2023-01-25T08:41:03;27.20;;;15.40;;
417;SDS011;49;48.530;9.200;2023-01-25T08:43:31;25.23;;;15.60;;
417;SDS011;49;48.530;9.200;2023-01-25T08:45:58;29.50;;;17.77;;
417;SDS011;49;48.530;9.200;2023-01-25T08:48:26;32.73;;;18.50;;
417;SDS011;49;48.530;9.200;2023-01-25T08:50:53;30.50;;;17.43;;
417;SDS011;49;48.530;9.200;2023-01-25T08:53:20;31.30;;;17.83;;
417;SDS011;49;48.530;9.200;2023-01-25T08:55:49;36.43;;;19.27;;
417;SDS011;49;48.530;9.200;2023-01-25T08:58:16;29.10;;;16.77;;
417;SDS011;49;48.530;9.200;2023-01-25T09:00:44;30.43;;;15.60;;
417;SDS011;49;48.530;9.200;2023-01-25T09:03:11;26.77;;;15.00;;
417;SDS011;49;48.530;9.200;2023-01-25T09:05:38;27.00;;;15.50;;
417;SDS011;49;48.530;9.200;2023-01-25T09:08:06;23.10;;;13.33;;
417;SDS011;49;48.530;9.200;2023-01-25T09:10:34;26.80;;;15.40;;
417;SDS011;49;48.530;9.200;2023-01-25T09:13:03;23.13;;;13.40;;
417;SDS011;49;48.530;9.200;2023-01-25T09:15:30;24.27;;;13.90;;
417;SDS011;49;48.530;9.200;2023-01-25T09:17:57;25.13;;;13.90;;
417;SDS011;49;48.530;9.200;2023-01-25T09:20:24;23.70;;;13.33;;
417;SDS011;49;48.530;9.200;2023-01-25T09:22:51;23.10;;;13.70;;
417;SDS011;49;48.530;9.200;2023-01-25T09:25:18;26.57;;;14.13;;
417;SDS011;49;48.530;9.200;2023-01-25T09:27:47;25.60;;;14.50;;
417;SDS011;49;48.530;9.200;2023-01-25T09:30:16;22.07;;;14.73;;
417;SDS011;49;48.530;9.200;2023-01-25T09:32:43;24.07;;;14.17;;
417;SDS011;49;48.530;9.200;2023-01-25T09:35:10;21.80;;;12.80;;
417;SDS011;49;48.530;9.200;2023-01-25T09:37:37;23.47;;;14.47;;
417;SDS011;49;48.530;9.200;2023-01-25T09:40:04;21.60;;;13.20;;
417;SDS011;49;48.530;9.200;2023-01-25T09:42:50;22.27;;;13.10;;
417;SDS011;49;48.530;9.200;2023-01-25T09:45:29;32.10;;;15.07;;
417;SDS011;49;48.530;9.200;2023-01-25T09:48:03;25.20;;;14.90;;
417;SDS011;49;48.530;9.200;2023-01-25T09:50:40;25.67;;;15.80;;
417;SDS011;49;48.530;9.200;2023-01-25T09:53:32;26.27;;;15.00;;
417;SDS011;49;48.530;9.200;2023-01-25T09:56:03;26.23;;;15.17;;
417;SDS011;49;48.530;9.200;2023-01-25T09:58:38;24.97;;;14.33;;
417;SDS011;49;48.530;9.200;2023-01-25T10:01:13;23.33;;;14.73;;
417;SDS011;49;48.530;9.200;2023-01-25T10:04:00;24.00;;;14.90;;
417;SDS011;49;48.530;9.200;2023-01-25T10:06:34;24.63;;;15.30;;
417;SDS011;49;48.530;9.200;2023-01-25T10:09:04;26.23;;;16.13;;
417;SDS011;49;48.530;9.200;2023-01-25T10:11:39;24.77;;;15.17;;
417;SDS011;49;48.530;9.200;2023-01-25T10:14:09;36.50;;;15.00;;
417;SDS011;49;48.530;9.200;2023-01-25T10:16:46;22.83;;;13.63;;
417;SDS011;49;48.530;9.200;2023-01-25T10:19:24;23.40;;;13.73;;
417;SDS011;49;48.530;9.200;2023-01-25T10:22:05;24.20;;;14.70;;
417;SDS011;49;48.530;9.200;2023-01-25T10:24:58;28.50;;;14.50;;
417;SDS011;49;48.530;9.200;2023-01-25T10:27:43;28.03;;;15.90;;
417;SDS011;49;48.530;9.200;2023-01-25T10:30:20;32.30;;;17.20;;
417;SDS011;49;48.530;9.200;2023-01-25T10:32:53;30.57;;;16.77;;
417;SDS011;49;48.530;9.200;2023-01-25T10:35:25;31.63;;;18.47;;
417;SDS011;49;48.530;9.200;2023-01-25T10:37:56;41.90;;;21.70;;
417;SDS011;49;48.530;9.200;2023-01-25T10:40:27;50.93;;;25.27;;
417;SDS011;49;48.530;9.200;2023-01-25T10:43:01;28.70;;;15.63;;
417;SDS011;49;48.530;9.200;2023-01-25T10:45:32;27.37;;;15.90;;
417;SDS011;49;48.530;9.200;2023-01-25T10:48:02;26.17;;;15.10;;
417;SDS011;49;48.530;9.200;2023-01-25T10:50:46;27.10;;;14.53;;
417;SDS011;49;48.530;9.200;2023-01-25T10:56:02;24.83;;;14.83;;
417;SDS011;49;48.530;9.200;2023-01-25T10:58:49;21.93;;;13.20;;
417;SDS011;49;48.530;9.200;2023-01-25T11:01:27;23.43;;;14.10;;
417;SDS011;49;48.530;9.200;2023-01-25T11:06:59;32.90;;;16.53;;
417;SDS011;49;48.530;9.200;2023-01-25T11:09:36;30.30;;;14.80;;
417;SDS011;49;48.530;9.200;2023-01-25T11:12:05;29.23;;;15.60;;
417;SDS011;49;48.530;9.200;2023-01-25T11:14:43;29.37;;;16.37;;
417;SDS011;49;48.530;9.200;2023-01-25T11:17:21;26.67;;;15.57;;
417;SDS011;49;48.530;9.200;2023-01-25T11:20:05;28.30;;;15.87;;
417;SDS011;49;48.530;9.200;2023-01-25T11:22:47;32.90;;;16.03;;
417;SDS011;49;48.530;9.200;2023-01-25T11:25:27;36.50;;;18.03;;
417;SDS011;49;48.530;9.200;2023-01-25T11:28:09;33.33;;;17.90;;
417;SDS011;49;48.530;9.200;2023-01-25T11:30:38;33.00;;;17.50;;
417;SDS011;49;48.530;9.200;2023-01-25T11:33:08;30.13;;;17.73;;
417;SDS011;49;48.530;9.200;2023-01-25T11:35:47;32.57;;;18.57;;
417;SDS011;49;48.530;9.200;2023-01-25T11:38:28;36.27;;;18.20;;
417;SDS011;49;48.530;9.200;2023-01-25T11:40:57;28.30;;;15.70;;
417;SDS011;49;48.530;9.200;2023-01-25T11:43:45;34.00;;;20.97;;
417;SDS011;49;48.530;9.200;2023-01-25T11:46:31;32.20;;;16.67;;
417;SDS011;49;48.530;9.200;2023-01-25T11:52:00;29.67;;;16.00;;
417;SDS011;49;48.530;9.200;2023-01-25T11:54:44;35.67;;;17.53;;
417;SDS011;49;48.530;9.200;2023-01-25T11:57:27;31.27;;;16.53;;
417;SDS011;49;48.530;9.200;2023-01-25T12:00:13;27.27;;;15.50;;
417;SDS011;49;48.530;9.200;2023-01-25T12:03:09;28.23;;;15.80;;
417;SDS011;49;48.530;9.200;2023-01-25T12:06:01;30.20;;;14.70;;
417;SDS011;49;48.530;9.200;2023-01-25T12:08:40;33.13;;;16.83;;
417;SDS011;49;48.530;9.200;2023-01-25T12:11:21;28.07;;;16.30;;
417;SDS011;49;48.530;9.200;2023-01-25T12:14:04;30.60;;;15.90;;
417;SDS011;49;48.530;9.200;2023-01-25T12:16:42;29.20;;;15.90;;
417;SDS011;49;48.530;9.200;2023-01-25T12:19:33;32.80;;;18.00;;
417;SDS011;49;48.530;9.200;2023-01-25T12:25:20;31.50;;;16.83;;
417;SDS011;49;48.530;9.200;2023-01-25T12:28:06;30.53;;;17.87;;
417;SDS011;49;48.530;9.200;2023-01-25T12:30:42;25.90;;;15.00;;
417;SDS011;49;48.530;9.200;2023-01-25T12:33:16;28.57;;;14.73;;
417;SDS011;49;48.530;9.200;2023-01-25T12:35:51;32.30;;;16.40;;
417;SDS011;49;48.530;9.200;2023-01-25T12:38:24;35.13;;;17.77;;
417;SDS011;49;48.530;9.200;2023-01-25T12:40:55;38.90;;;15.07;;
417;SDS011;49;48.530;9.200;2023-01-25T12:43:26;28.73;;;15.90;;
417;SDS011;49;48.530;9.200;2023-01-25T12:45:58;33.00;;;17.33;;
417;SDS011;49;48.530;9.200;2023-01-25T12:48:30;33.60;;;18.03;;
417;SDS011;49;48.530;9.200;2023-01-25T12:51:02;34.10;;;18.23;;
417;SDS011;49;48.530;9.200;2023-01-25T12:53:30;44.90;;;21.00;;
417;SDS011;49;48.530;9.200;2023-01-25T12:56:05;29.30;;;16.50;;
417;SDS011;49;48.530;9.200;2023-01-25T12:58:34;33.10;;;17.47;;
417;SDS011;49;48.530;9.200;2023-01-25T13:01:08;48.60;;;19.60;;
417;SDS011;49;48.530;9.200;2023-01-25T13:03:52;34.70;;;18.20;;
417;SDS011;49;48.530;9.200;2023-01-25T13:06:40;26.80;;;15.30;;
417;SDS011;49;48.530;9.200;2023-01-25T13:09:14;26.60;;;15.60;;
417;SDS011;49;48.530;9.200;2023-01-25T13:11:49;32.70;;;16.27;;
417;SDS011;49;48.530;9.200;2023-01-25T13:14:26;26.23;;;14.63;;
417;SDS011;49;48.530;9.200;2023-01-25T13:17:08;31.30;;;15.77;;
417;SDS011;49;48.530;9.200;2023-01-25T13:19:38;30.60;;;15.93;;
417;SDS011;49;48.530;9.200;2023-01-25T13:22:08;26.57;;;15.77;;
417;SDS011;49;48.530;9.200;2023-01-25T13:27:45;47.93;;;23.03;;
417;SDS011;49;48.530;9.200;2023-01-25T13:33:21;29.70;;;17.30;;
417;SDS011;49;48.530;9.200;2023-01-25T13:35:58;25.27;;;14.50;;
417;SDS011;49;48.530;9.200;2023-01-25T13:42:04;27.07;;;14.80;;
417;SDS011;49;48.530;9.200;2023-01-25T13:44:47;24.73;;;14.37;;
417;SDS011;49;48.530;9.200;2023-01-25T13:47:16;29.07;;;14.83;;
417;SDS011;49;48.530;9.200;2023-01-25T13:49:47;25.83;;;15.63;;
417;SDS011;49;48.530;9.200;2023-01-25T13:52:18;27.10;;;15.27;;
417;SDS011;49;48.530;9.200;2023-01-25T13:54:48;27.03;;;14.20;;
417;SDS011;49;48.530;9.200;2023-01-25T13:57:18;31.33;;;14.97;;
417;SDS011;49;48.530;9.200;2023-01-25T13:59:49;33.47;;;14.93;;
417;SDS011;49;48.530;9.200;2023-01-25T14:02:24;30.00;;;15.20;;
417;SDS011;49;48.530;9.200;2023-01-25T14:04:52;26.93;;;15.73;;
417;SDS011;49;48.530;9.200;2023-01-25T14:07:21;29.60;;;15.80;;
417;SDS011;49;48.530;9.200;2023-01-25T14:09:55;29.90;;;16.13;;
417;SDS011;49;48.530;9.200;2023-01-25T14:12:28;33.43;;;17.87;;
417;SDS011;49;48.530;9.200;2023-01-25T14:15:17;33.73;;;17.10;;
417;SDS011;49;48.530;9.200;2023-01-25T14:17:45;31.03;;;16.13;;
417;SDS011;49;48.530;9.200;2023-01-25T14:20:29;26.17;;;15.20;;
417;SDS011;49;48.530;9.200;2023-01-25T14:22:57;29.23;;;13.80;;
417;SDS011;49;48.530;9.200;2023-01-25T14:25:24;26.40;;;15.60;;
417;SDS011;49;48.530;9.200;2023-01-25T14:27:51;30.30;;;14.17;;
417;SDS011;49;48.530;9.200;2023-01-25T14:30:22;34.00;;;14.77;;
417;SDS011;49;48.530;9.200;2023-01-25T14:32:51;24.00;;;13.80;;
417;SDS011;49;48.530;9.200;2023-01-25T14:35:32;32.40;;;15.27;;
417;SDS011;49;48.530;9.200;2023-01-25T14:38:01;29.27;;;16.60;;
417;SDS011;49;48.530;9.200;2023-01-25T14:40:34;28.00;;;16.90;;
417;SDS011;49;48.530;9.200;2023-01-25T14:43:04;36.23;;;17.27;;
417;SDS011;49;48.530;9.200;2023-01-25T14:45:36;35.37;;;18.03;;
417;SDS011;49;48.530;9.200;2023-01-25T14:51:15;37.73;;;19.10;;
417;SDS011;49;48.530;9.200;2023-01-25T14:53:49;36.03;;;17.80;;
417;SDS011;49;48.530;9.200;2023-01-25T14:56:25;32.43;;;17.37;;
417;SDS011;49;48.530;9.200;2023-01-25T14:58:56;39.67;;;21.23;;
417;SDS011;49;48.530;9.200;2023-01-25T15:01:27;25.63;;;15.27;;
417;SDS011;49;48.530;9.200;2023-01-25T15:03:58;24.20;;;14.87;;
417;SDS011;49;48.530;9.200;2023-01-25T15:06:26;33.57;;;18.37;;
417;SDS011;49;48.530;9.200;2023-01-25T15:08:53;30.70;;;16.20;;
417;SDS011;49;48.530;9.200;2023-01-25T15:11:25;32.80;;;17.47;;
417;SDS011;49;48.530;9.200;2023-01-25T15:14:16;30.03;;;15.90;;
417;SDS011;49;48.530;9.200;2023-01-25T15:16:45;27.20;;;15.47;;
417;SDS011;49;48.530;9.200;2023-01-25T15:19:23;25.80;;;14.53;;
417;SDS011;49;48.530;9.200;2023-01-25T15:21:52;26.90;;;15.47;;
417;SDS011;49;48.530;9.200;2023-01-25T15:24:20;26.93;;;15.30;;
417;SDS011;49;48.530;9.200;2023-01-25T15:26:48;28.37;;;15.73;;
417;SDS011;49;48.530;9.200;2023-01-25T15:29:17;27.23;;;15.67;;
417;SDS011;49;48.530;9.200;2023-01-25T15:31:48;27.80;;;14.60;;
417;SDS011;49;48.530;9.200;2023-01-25T15:34:19;30.17;;;16.80;;
417;SDS011;49;48.530;9.200;2023-01-25T15:36:48;33.10;;;17.83;;
417;SDS011;49;48.530;9.200;2023-01-25T15:39:16;33.73;;;18.20;;
417;SDS011;49;48.530;9.200;2023-01-25T15:41:45;56.27;;;27.13;;
417;SDS011;49;48.530;9.200;2023-01-25T15:44:12;32.37;;;17.73;;
417;SDS011;49;48.530;9.200;2023-01-25T15:46:41;39.30;;;21.30;;
417;SDS011;49;48.530;9.200;2023-01-25T15:49:16;38.53;;;21.30;;
417;SDS011;49;48.530;9.200;2023-01-25T15:51:44;35.17;;;17.97;;
417;SDS011;49;48.530;9.200;2023-01-25T15:54:12;28.80;;;16.63;;
417;SDS011;49;48.530;9.200;2023-01-25T15:56:39;36.03;;;16.17;;
417;SDS011;49;48.530;9.200;2023-01-25T15:59:12;30.43;;;16.43;;
417;SDS011;49;48.530;9.200;2023-01-25T16:01:42;27.70;;;16.30;;
417;SDS011;49;48.530;9.200;2023-01-25T16:04:10;30.23;;;16.93;;
417;SDS011;49;48.530;9.200;2023-01-25T16:06:40;45.90;;;25.73;;
417;SDS011;49;48.530;9.200;2023-01-25T16:09:13;31.33;;;17.53;;
417;SDS011;49;48.530;9.200;2023-01-25T16:11:42;33.10;;;17.50;;
417;SDS011;49;48.530;9.200;2023-01-25T16:14:10;27.53;;;16.20;;
417;SDS011;49;48.530;9.200;2023-01-25T16:16:38;33.43;;;17.57;;
417;SDS011;49;48.530;9.200;2023-01-25T16:19:08;31.27;;;17.60;;
417;SDS011;49;48.530;9.200;2023-01-25T16:21:42;137.30;;;46.87;;
417;SDS011;49;48.530;9.200;2023-01-25T16:24:09;78.00;;;29.00;;